Ole-arvid Nergaard — LLAY — position and weather

sailwx.info

Track history (hours):
 
Tides and Currents Weather Stations Pressure Air Temp Water Temp Dewpoint Dewpoint Depression Visibility Wind Speed Wind Dir Waves Ship Positions

Ole-arvid Nergaard

Last reported at 2017-Apr-24 02:44 UTC. Time now 2017-Apr-27 18:46 UTC.
Position N 69°56' E 016°48'.

Length 55 m; draft 7.2 m.

Type: Fishing. MMSI: 259656000.

Date/timePositionNaut miles runAvg speedWind from/ knotsBaromVisibWave heightAir tempDewpointWater temp
2017-Apr-24 02:44N 69°56' E 016°48'210.4
2017-Apr-24 02:30N 69°53' E 016°47'510.7
2017-Apr-24 02:00N 69°48' E 016°47'611.2
2017-Apr-24 01:30N 69°42' E 016°46'611.2
2017-Apr-24 01:00N 69°37' E 016°44'611.5
2017-Apr-24 00:30N 69°31' E 016°43'611.6
2017-Apr-24 00:00N 69°25' E 016°42'611.5
2017-Apr-23 23:30N 69°20' E 016°40'611.4
2017-Apr-23 22:59N 69°14' E 016°41'611.7
2017-Apr-23 22:30N 69°08' E 016°43'611.7
2017-Apr-23 22:00N 69°02' E 016°44'611.6
2017-Apr-23 21:30N 68°57' E 016°49'611.6
2017-Apr-23 21:00N 68°51' E 016°44'510.5
2017-Apr-23 20:31N 68°48' E 016°33'1 1.4
2017-Apr-23 20:00N 68°47' E 016°33'0 0.0
2017-Apr-23 19:30N 68°47' E 016°33'0 0.0
2017-Apr-23 19:00N 68°47' E 016°33'2 3.1
2017-Apr-23 18:30N 68°48' E 016°36'510.7
2017-Apr-23 18:00N 68°43' E 016°42'611.7
2017-Apr-23 17:30N 68°38' E 016°35'510.4
2017-Apr-23 17:00N 68°33' E 016°28'510.7
2017-Apr-23 16:30N 68°33' E 016°14'611.7
2017-Apr-23 16:00N 68°28' E 016°06'611.9
2017-Apr-23 15:30N 68°22' E 015°59'611.6
2017-Apr-23 15:00N 68°18' E 015°49'1211.7
2017-Apr-23 14:00N 68°10' E 015°25'611.4
2017-Apr-23 13:30N 68°07' E 015°14'611.7
2017-Apr-23 13:01N 68°03' E 015°02'611.9
2017-Apr-23 12:30N 67°59' E 014°50'611.9
2017-Apr-23 12:00N 67°55' E 014°38'611.9
2017-Apr-23 11:30N 67°51' E 014°27'611.9
2017-Apr-23 11:00N 67°46' E 014°18'611.7
2017-Apr-23 10:30N 67°40' E 014°16'611.9
2017-Apr-23 10:01N 67°34' E 014°20'611.9
2017-Apr-23 09:31N 67°28' E 014°23'611.7
2017-Apr-23 09:00N 67°23' E 014°25'612.2
2017-Apr-23 08:31N 67°18' E 014°16'612.0
2017-Apr-23 08:01N 67°13' E 014°07'612.3
2017-Apr-23 07:31N 67°07' E 014°00'612.2
2017-Apr-23 07:00N 67°03' E 013°50'612.1
2017-Apr-23 06:31N 66°58' E 013°39'5 9.4
2017-Apr-23 06:00N 66°55' E 013°29'611.5
2017-Apr-23 05:30N 66°51' E 013°20'611.6
2017-Apr-23 05:00N 66°46' E 013°14'612.0
2017-Apr-23 04:30N 66°40' E 013°08'611.8
2017-Apr-23 04:00N 66°35' E 013°05'5 9.9
2017-Apr-23 03:30N 66°30' E 012°59'611.6
2017-Apr-23 03:00N 66°25' E 012°59'611.9
2017-Apr-23 02:31N 66°19' E 012°57'611.8
2017-Apr-23 02:00N 66°13' E 012°53'612.0
2017-Apr-23 01:30N 66°08' E 012°46'612.0
2017-Apr-23 01:00N 66°03' E 012°37'612.0
2017-Apr-23 00:30N 65°58' E 012°28'611.3
2017-Apr-23 00:00N 65°53' E 012°22'611.6
2017-Apr-22 23:30N 65°47' E 012°20'611.8
2017-Apr-22 23:00N 65°42' E 012°15'611.6
2017-Apr-22 22:30N 65°36' E 012°11'611.6
2017-Apr-22 22:00N 65°32' E 012°02'611.6
2017-Apr-22 21:30N 65°27' E 011°56'510.3
2017-Apr-22 21:00N 65°22' E 012°02'5 9.7
2017-Apr-22 20:30N 65°17' E 011°58'611.6
2017-Apr-22 20:00N 65°12' E 011°53'611.6
2017-Apr-22 19:30N 65°07' E 011°48'611.6
2017-Apr-22 19:01N 65°02' E 011°40'612.0
2017-Apr-22 18:30N 64°60' E 011°27'611.2
2017-Apr-22 18:00N 64°55' E 011°21'510.4
2017-Apr-22 17:31N 64°51' E 011°13'611.0
2017-Apr-22 17:00N 64°47' E 011°04'611.6
2017-Apr-22 16:30N 64°43' E 010°54'611.4
2017-Apr-22 16:00N 64°39' E 010°44'611.5
2017-Apr-22 15:29N 64°35' E 010°34'611.7
2017-Apr-22 15:00N 64°31' E 010°26'611.5
2017-Apr-22 14:30N 64°27' E 010°16'1211.6
2017-Apr-22 13:30N 64°19' E 009°56'510.7
2017-Apr-22 13:00N 64°15' E 009°48'510.7
2017-Apr-22 12:31N 64°10' E 009°42'510.8
2017-Apr-22 12:00N 64°05' E 009°36'510.8
2017-Apr-22 11:30N 64°01' E 009°31'511.2
2017-Apr-22 11:01N 63°56' E 009°25'611.2
2017-Apr-22 10:30N 63°50' E 009°20'611.4
2017-Apr-22 10:00N 63°45' E 009°16'611.4
2017-Apr-22 09:30N 63°39' E 009°15'611.4
2017-Apr-22 09:00N 63°34' E 009°16'611.8
2017-Apr-22 08:30N 63°30' E 009°05'612.3
2017-Apr-22 08:00N 63°28' E 008°52'612.2
2017-Apr-22 07:30N 63°26' E 008°40'612.1
2017-Apr-22 07:00N 63°23' E 008°27'612.1
2017-Apr-22 06:30N 63°19' E 008°17'612.0
2017-Apr-22 06:00N 63°16' E 008°06'612.0
2017-Apr-22 05:30N 63°13' E 007°55'611.8
2017-Apr-22 05:00N 63°10' E 007°44'612.1
2017-Apr-22 04:30N 63°06' E 007°32'611.4
2017-Apr-22 04:01N 63°04' E 007°21'611.4
2017-Apr-22 03:30N 63°02' E 007°10'611.3
2017-Apr-22 03:00N 62°60' E 006°58'510.4
2017-Apr-22 02:30N 62°57' E 006°49'510.6
2017-Apr-22 02:01N 62°52' E 006°42'611.1
2017-Apr-22 01:30N 62°47' E 006°36'611.2
2017-Apr-22 01:00N 62°43' E 006°30'611.0
2017-Apr-22 00:30N 62°38' E 006°22'611.3
2017-Apr-22 00:00N 62°35' E 006°13'4 8.7
2017-Apr-21 23:30N 62°31' E 006°09'2 4.8
2017-Apr-21 23:00N 62°28' E 006°08'0 0.0
2017-Apr-21 22:30N 62°28' E 006°08'0 0.0
2017-Apr-21 22:00N 62°28' E 006°08'0 0.0
2017-Apr-21 21:29N 62°28' E 006°08'0 0.0
2017-Apr-21 21:00N 62°28' E 006°08'0 0.0
2017-Apr-21 20:30N 62°28' E 006°08'0 0.0
2017-Apr-21 20:00N 62°28' E 006°08'0 0.0
2017-Apr-21 19:30N 62°28' E 006°08'0 0.0
2017-Apr-21 19:00N 62°28' E 006°08'0 0.0
2017-Apr-21 18:30N 62°28' E 006°08'0 0.0
2017-Apr-21 18:00N 62°28' E 006°08'0 0.0
2017-Apr-21 17:30N 62°28' E 006°08'0 0.0
2017-Apr-21 17:00N 62°28' E 006°08'0 0.0
2017-Apr-21 16:30N 62°28' E 006°08'0 0.0
2017-Apr-21 16:01N 62°28' E 006°08'0 0.0
2017-Apr-21 15:30N 62°28' E 006°08'0 0.0
2017-Apr-21 15:00N 62°28' E 006°08'0 0.0
2017-Apr-21 14:30N 62°28' E 006°08'0 0.0
2017-Apr-21 13:30N 62°28' E 006°08'0 0.0
2017-Apr-21 13:00N 62°28' E 006°08'0 0.0
2017-Apr-21 12:30N 62°28' E 006°08'0 0.0
2017-Apr-21 12:00N 62°28' E 006°08'0 0.0
2017-Apr-21 11:30N 62°28' E 006°08'0 0.0
2017-Apr-21 11:00N 62°28' E 006°08'0 0.0
2017-Apr-21 10:30N 62°28' E 006°08'0 0.0
2017-Apr-21 10:00N 62°28' E 006°08'0 0.0
2017-Apr-21 09:30N 62°28' E 006°08'0 0.0
2017-Apr-21 09:00N 62°28' E 006°08'0 0.1
2017-Apr-21 08:30N 62°28' E 006°08'3 5.6
2017-Apr-21 08:00N 62°29' E 006°13'0 0.1
2017-Apr-21 07:30N 62°29' E 006°13'0 0.0
2017-Apr-21 07:00N 62°29' E 006°13'1 2.0
2017-Apr-21 06:30N 62°29' E 006°16'0 0.3
2017-Apr-21 06:00N 62°29' E 006°16'0 0.0
2017-Apr-21 05:30N 62°29' E 006°16'0 0.0
2017-Apr-21 05:00N 62°29' E 006°16'0 0.0
2017-Apr-21 04:30N 62°29' E 006°16'0 0.3
2017-Apr-21 04:00N 62°29' E 006°15'0 0.2
2017-Apr-21 03:30N 62°29' E 006°15'2 3.3
2017-Apr-21 03:00N 62°29' E 006°12'3 5.6
2017-Apr-21 02:30N 62°29' E 006°06'3 5.8
2017-Apr-21 02:00N 62°26' E 006°02'2 3.6
2017-Apr-21 01:30N 62°25' E 006°03'1 1.1
2017-Apr-21 01:00N 62°24' E 006°03'0 0.7
2017-Apr-21 00:30N 62°24' E 006°02'0 0.1
2017-Apr-20 23:59N 62°24' E 006°02'0 0.3
2017-Apr-20 23:30N 62°24' E 006°02'0 0.5
2017-Apr-20 23:01N 62°24' E 006°02'0 0.9
2017-Apr-20 22:30N 62°24' E 006°03'0 0.2
2017-Apr-20 22:00N 62°24' E 006°03'0 0.8
2017-Apr-20 21:31N 62°24' E 006°02'1 1.6
2017-Apr-20 21:00N 62°24' E 006°04'0 0.9
2017-Apr-20 20:30N 62°24' E 006°03'0 0.7
2017-Apr-20 20:01N 62°24' E 006°02'0 0.6
2017-Apr-20 19:30N 62°24' E 006°01'4 7.0
2017-Apr-20 19:00N 62°27' E 005°56'510.5
2017-Apr-20 18:30N 62°27' E 005°45'510.6
2017-Apr-20 18:00N 62°27' E 005°33'510.5
2017-Apr-20 17:30N 62°26' E 005°22'5 9.8
2017-Apr-20 17:00N 62°26' E 005°12'510.6
2017-Apr-20 16:30N 62°24' E 005°01'510.7
2017-Apr-20 16:00N 62°22' E 004°49'  
Track history (hours):
 
Tides and Currents Weather Stations Pressure Air Temp Water Temp Dewpoint Dewpoint Depression Visibility Wind Speed Wind Dir Waves Ship Positions

Ole-arvid Nergaard

Last reported at 2017-Apr-24 02:44 UTC. Time now 2017-Apr-27 18:46 UTC.
Position N 69°56' E 016°48'.

Length 55 m; draft 7.2 m.

Type: Fishing. MMSI: 259656000.

Date/timePositionNaut miles runAvg speedWind from/ knotsBaromVisibWave heightAir tempDewpointWater temp
2017-Apr-24 02:44N 69°56' E 016°48'210.4
2017-Apr-24 02:30N 69°53' E 016°47'510.7
2017-Apr-24 02:00N 69°48' E 016°47'611.2
2017-Apr-24 01:30N 69°42' E 016°46'611.2
2017-Apr-24 01:00N 69°37' E 016°44'611.5
2017-Apr-24 00:30N 69°31' E 016°43'611.6
2017-Apr-24 00:00N 69°25' E 016°42'611.5
2017-Apr-23 23:30N 69°20' E 016°40'611.4
2017-Apr-23 22:59N 69°14' E 016°41'611.7
2017-Apr-23 22:30N 69°08' E 016°43'611.7
2017-Apr-23 22:00N 69°02' E 016°44'611.6
2017-Apr-23 21:30N 68°57' E 016°49'611.6
2017-Apr-23 21:00N 68°51' E 016°44'510.5
2017-Apr-23 20:31N 68°48' E 016°33'1 1.4
2017-Apr-23 20:00N 68°47' E 016°33'0 0.0
2017-Apr-23 19:30N 68°47' E 016°33'0 0.0
2017-Apr-23 19:00N 68°47' E 016°33'2 3.1
2017-Apr-23 18:30N 68°48' E 016°36'510.7
2017-Apr-23 18:00N 68°43' E 016°42'611.7
2017-Apr-23 17:30N 68°38' E 016°35'510.4
2017-Apr-23 17:00N 68°33' E 016°28'510.7
2017-Apr-23 16:30N 68°33' E 016°14'611.7
2017-Apr-23 16:00N 68°28' E 016°06'611.9
2017-Apr-23 15:30N 68°22' E 015°59'611.6
2017-Apr-23 15:00N 68°18' E 015°49'1211.7
2017-Apr-23 14:00N 68°10' E 015°25'611.4
2017-Apr-23 13:30N 68°07' E 015°14'611.7
2017-Apr-23 13:01N 68°03' E 015°02'611.9
2017-Apr-23 12:30N 67°59' E 014°50'611.9
2017-Apr-23 12:00N 67°55' E 014°38'611.9
2017-Apr-23 11:30N 67°51' E 014°27'611.9
2017-Apr-23 11:00N 67°46' E 014°18'611.7
2017-Apr-23 10:30N 67°40' E 014°16'611.9
2017-Apr-23 10:01N 67°34' E 014°20'611.9
2017-Apr-23 09:31N 67°28' E 014°23'611.7
2017-Apr-23 09:00N 67°23' E 014°25'612.2
2017-Apr-23 08:31N 67°18' E 014°16'612.0
2017-Apr-23 08:01N 67°13' E 014°07'612.3
2017-Apr-23 07:31N 67°07' E 014°00'612.2
2017-Apr-23 07:00N 67°03' E 013°50'612.1
2017-Apr-23 06:31N 66°58' E 013°39'5 9.4
2017-Apr-23 06:00N 66°55' E 013°29'611.5
2017-Apr-23 05:30N 66°51' E 013°20'611.6
2017-Apr-23 05:00N 66°46' E 013°14'612.0
2017-Apr-23 04:30N 66°40' E 013°08'611.8
2017-Apr-23 04:00N 66°35' E 013°05'5 9.9
2017-Apr-23 03:30N 66°30' E 012°59'611.6
2017-Apr-23 03:00N 66°25' E 012°59'611.9
2017-Apr-23 02:31N 66°19' E 012°57'611.8
2017-Apr-23 02:00N 66°13' E 012°53'612.0
2017-Apr-23 01:30N 66°08' E 012°46'612.0
2017-Apr-23 01:00N 66°03' E 012°37'612.0
2017-Apr-23 00:30N 65°58' E 012°28'611.3
2017-Apr-23 00:00N 65°53' E 012°22'611.6
2017-Apr-22 23:30N 65°47' E 012°20'611.8
2017-Apr-22 23:00N 65°42' E 012°15'611.6
2017-Apr-22 22:30N 65°36' E 012°11'611.6
2017-Apr-22 22:00N 65°32' E 012°02'611.6
2017-Apr-22 21:30N 65°27' E 011°56'510.3
2017-Apr-22 21:00N 65°22' E 012°02'5 9.7
2017-Apr-22 20:30N 65°17' E 011°58'611.6
2017-Apr-22 20:00N 65°12' E 011°53'611.6
2017-Apr-22 19:30N 65°07' E 011°48'611.6
2017-Apr-22 19:01N 65°02' E 011°40'612.0
2017-Apr-22 18:30N 64°60' E 011°27'611.2
2017-Apr-22 18:00N 64°55' E 011°21'510.4
2017-Apr-22 17:31N 64°51' E 011°13'611.0
2017-Apr-22 17:00N 64°47' E 011°04'611.6
2017-Apr-22 16:30N 64°43' E 010°54'611.4
2017-Apr-22 16:00N 64°39' E 010°44'611.5
2017-Apr-22 15:29N 64°35' E 010°34'611.7
2017-Apr-22 15:00N 64°31' E 010°26'611.5
2017-Apr-22 14:30N 64°27' E 010°16'1211.6
2017-Apr-22 13:30N 64°19' E 009°56'510.7
2017-Apr-22 13:00N 64°15' E 009°48'510.7
2017-Apr-22 12:31N 64°10' E 009°42'510.8
2017-Apr-22 12:00N 64°05' E 009°36'510.8
2017-Apr-22 11:30N 64°01' E 009°31'511.2
2017-Apr-22 11:01N 63°56' E 009°25'611.2
2017-Apr-22 10:30N 63°50' E 009°20'611.4
2017-Apr-22 10:00N 63°45' E 009°16'611.4
2017-Apr-22 09:30N 63°39' E 009°15'611.4
2017-Apr-22 09:00N 63°34' E 009°16'611.8
2017-Apr-22 08:30N 63°30' E 009°05'612.3
2017-Apr-22 08:00N 63°28' E 008°52'612.2
2017-Apr-22 07:30N 63°26' E 008°40'612.1
2017-Apr-22 07:00N 63°23' E 008°27'612.1
2017-Apr-22 06:30N 63°19' E 008°17'612.0
2017-Apr-22 06:00N 63°16' E 008°06'612.0
2017-Apr-22 05:30N 63°13' E 007°55'611.8
2017-Apr-22 05:00N 63°10' E 007°44'612.1
2017-Apr-22 04:30N 63°06' E 007°32'611.4
2017-Apr-22 04:01N 63°04' E 007°21'611.4
2017-Apr-22 03:30N 63°02' E 007°10'611.3
2017-Apr-22 03:00N 62°60' E 006°58'510.4
2017-Apr-22 02:30N 62°57' E 006°49'510.6
2017-Apr-22 02:01N 62°52' E 006°42'611.1
2017-Apr-22 01:30N 62°47' E 006°36'611.2
2017-Apr-22 01:00N 62°43' E 006°30'611.0
2017-Apr-22 00:30N 62°38' E 006°22'611.3
2017-Apr-22 00:00N 62°35' E 006°13'4 8.7
2017-Apr-21 23:30N 62°31' E 006°09'2 4.8
2017-Apr-21 23:00N 62°28' E 006°08'0 0.0
2017-Apr-21 22:30N 62°28' E 006°08'0 0.0
2017-Apr-21 22:00N 62°28' E 006°08'0 0.0
2017-Apr-21 21:29N 62°28' E 006°08'0 0.0
2017-Apr-21 21:00N 62°28' E 006°08'0 0.0
2017-Apr-21 20:30N 62°28' E 006°08'0 0.0
2017-Apr-21 20:00N 62°28' E 006°08'0 0.0
2017-Apr-21 19:30N 62°28' E 006°08'0 0.0
2017-Apr-21 19:00N 62°28' E 006°08'0 0.0
2017-Apr-21 18:30N 62°28' E 006°08'0 0.0
2017-Apr-21 18:00N 62°28' E 006°08'0 0.0
2017-Apr-21 17:30N 62°28' E 006°08'0 0.0
2017-Apr-21 17:00N 62°28' E 006°08'0 0.0
2017-Apr-21 16:30N 62°28' E 006°08'0 0.0
2017-Apr-21 16:01N 62°28' E 006°08'0 0.0
2017-Apr-21 15:30N 62°28' E 006°08'0 0.0
2017-Apr-21 15:00N 62°28' E 006°08'0 0.0
2017-Apr-21 14:30N 62°28' E 006°08'0 0.0
2017-Apr-21 13:30N 62°28' E 006°08'0 0.0
2017-Apr-21 13:00N 62°28' E 006°08'0 0.0
2017-Apr-21 12:30N 62°28' E 006°08'0 0.0
2017-Apr-21 12:00N 62°28' E 006°08'0 0.0
2017-Apr-21 11:30N 62°28' E 006°08'0 0.0
2017-Apr-21 11:00N 62°28' E 006°08'0 0.0
2017-Apr-21 10:30N 62°28' E 006°08'0 0.0
2017-Apr-21 10:00N 62°28' E 006°08'0 0.0
2017-Apr-21 09:30N 62°28' E 006°08'0 0.0
2017-Apr-21 09:00N 62°28' E 006°08'0 0.1
2017-Apr-21 08:30N 62°28' E 006°08'3 5.6
2017-Apr-21 08:00N 62°29' E 006°13'0 0.1
2017-Apr-21 07:30N 62°29' E 006°13'0 0.0
2017-Apr-21 07:00N 62°29' E 006°13'1 2.0
2017-Apr-21 06:30N 62°29' E 006°16'0 0.3
2017-Apr-21 06:00N 62°29' E 006°16'0 0.0
2017-Apr-21 05:30N 62°29' E 006°16'0 0.0
2017-Apr-21 05:00N 62°29' E 006°16'0 0.0
2017-Apr-21 04:30N 62°29' E 006°16'0 0.3
2017-Apr-21 04:00N 62°29' E 006°15'0 0.2
2017-Apr-21 03:30N 62°29' E 006°15'2 3.3
2017-Apr-21 03:00N 62°29' E 006°12'3 5.6
2017-Apr-21 02:30N 62°29' E 006°06'3 5.8
2017-Apr-21 02:00N 62°26' E 006°02'2 3.6
2017-Apr-21 01:30N 62°25' E 006°03'1 1.1
2017-Apr-21 01:00N 62°24' E 006°03'0 0.7
2017-Apr-21 00:30N 62°24' E 006°02'0 0.1
2017-Apr-20 23:59N 62°24' E 006°02'0 0.3
2017-Apr-20 23:30N 62°24' E 006°02'0 0.5
2017-Apr-20 23:01N 62°24' E 006°02'0 0.9
2017-Apr-20 22:30N 62°24' E 006°03'0 0.2
2017-Apr-20 22:00N 62°24' E 006°03'0 0.8
2017-Apr-20 21:31N 62°24' E 006°02'1 1.6
2017-Apr-20 21:00N 62°24' E 006°04'0 0.9
2017-Apr-20 20:30N 62°24' E 006°03'0 0.7
2017-Apr-20 20:01N 62°24' E 006°02'0 0.6
2017-Apr-20 19:30N 62°24' E 006°01'4 7.0
2017-Apr-20 19:00N 62°27' E 005°56'510.5
2017-Apr-20 18:30N 62°27' E 005°45'510.6
2017-Apr-20 18:00N 62°27' E 005°33'510.5
2017-Apr-20 17:30N 62°26' E 005°22'5 9.8
2017-Apr-20 17:00N 62°26' E 005°12'510.6
2017-Apr-20 16:30N 62°24' E 005°01'510.7
2017-Apr-20 16:00N 62°22' E 004°49'  

Dump ship's entire track history